• Join FlightAware (Why Join?)
  • Login
  • US Flag 
07:43PM EDT


 

Airport Tracker/Info


-or-


 

Live Flight TrackerFlight Track Log ✈ CSN6653 ✈ 10-May-2013 ✈ ZYTX / SHE - ZSYT / YNT

Flight Track Log - Related Links

Times and Time Zones

All times are in EDT time to prevent confusion due to time zone crossing. See the CSN6653 flight status page for this flight to view local times or setup timezone preferences in your user account.

Time Position Orientation Groundspeed Altitude Reporting Facility
EDT Latitude Longitude Course Direction KTS MPH feet Rate Location/Type
07:51PM 41.5537 123.4376 202° Southwest  Level Estimated
07:52PM 41.4676 123.3920 202° Southwest  Level Estimated
07:53PM 41.3815 123.3464 202° Southwest  Level Estimated
07:54PM 41.2954 123.3010 202° Southwest  Level Estimated
07:55PM 41.2092 123.2557 202° Southwest  Level Estimated
07:56PM 41.1230 123.2105 202° Southwest  Level Estimated
07:57PM 41.0368 123.1655 202° Southwest  Level Estimated
07:58PM 40.9506 123.1205 201° Southwest  Level Estimated
07:59PM 40.8644 123.0757 201° Southwest  Level Estimated
08:00PM 40.7781 123.0310 201° Southwest  Level Estimated
08:01PM 40.6919 122.9864 201° Southwest  Level Estimated
08:02PM 40.6056 122.9419 201° Southwest  Level Estimated
08:03PM 40.5193 122.8975 201° Southwest  Level Estimated
08:04PM 40.4330 122.8533 201° Southwest  Level Estimated
08:05PM 40.3467 122.8092 201° Southwest  Level Estimated
08:06PM 40.2603 122.7651 201° Southwest  Level Estimated
08:07PM 40.1739 122.7212 201° Southwest  Level Estimated
08:08PM 40.0876 122.6774 201° Southwest  Level Estimated
08:09PM 40.0012 122.6337 201° Southwest  Level Estimated
08:10PM 39.9147 122.5901 201° Southwest  Level Estimated
08:11PM 39.8283 122.5467 201° Southwest  Level Estimated
08:12PM 39.7419 122.5033 201° Southwest  Level Estimated
08:13PM 39.6757 122.4702 201° Southwest  Level Estimated
08:14PM 39.6095 122.4371 201° Southwest  Level Estimated
08:15PM 39.5432 122.4041 201° Southwest  Level Estimated
08:16PM 39.4770 122.3712 201° Southwest  Level Estimated
08:17PM 39.4108 122.3383 201° Southwest  Level Estimated
08:18PM 39.3445 122.3055 201° Southwest  Level Estimated
08:19PM 39.2783 122.2728 201° Southwest  Level Estimated
08:20PM 39.2120 122.2401 201° Southwest  Level Estimated
08:21PM 39.1457 122.2075 201° Southwest  Level Estimated
08:22PM 39.0795 122.1749 201° Southwest  Level Estimated
08:23PM 39.0132 122.1424 201° Southwest  Level Estimated
08:24PM 38.9469 122.1100 201° Southwest  Level Estimated
08:25PM 38.8806 122.0776 201° Southwest  Level Estimated
08:26PM 38.8143 122.0453 201° Southwest  Level Estimated
08:27PM 38.7479 122.0130 201° Southwest  Level Estimated
08:28PM 38.6816 121.9808 201° Southwest  Level Estimated
08:29PM 38.6152 121.9487 201° Southwest  Level Estimated
08:30PM 38.5489 121.9166 201° Southwest  Level Estimated
08:31PM 38.4825 121.8846 201° Southwest  Level Estimated
08:32PM 38.4162 121.8526 201° Southwest  Level Estimated
08:33PM 38.3498 121.8207 201° Southwest  Level Estimated
08:34PM 38.2834 121.7888 201° Southwest  Level Estimated
08:35PM 38.2170 121.7570 201° Southwest  Level Estimated
08:36PM 38.1506 121.7253 201° Southwest  Level Estimated
08:37PM 38.0842 121.6936 201° Southwest  Level Estimated
08:38PM 38.0178 121.6620 201° Southwest  Level Estimated
08:39PM 37.9513 121.6305 201° Southwest  Level Estimated
08:40PM 37.8849 121.5990 201° Southwest  Level Estimated
08:41PM 37.8185 121.5675 200° South  Level Estimated
08:42PM 37.7520 121.5361 200° South  Level Estimated
08:43PM 37.6855 121.5048 200° South  Level Estimated
08:44PM 37.6191 121.4735 200° South  Level Estimated
08:45PM 37.5526 121.4423 200° South  Level Estimated
08:46PM 37.4861 121.4112 200° South  Level Estimated
08:47PM 37.4196 121.3801 200° South  Level Estimated
08:48PM 37.4017 121.3717 200° South  Level Estimated
08:49PM 37.4017 121.3717 218° Southwest  Level Estimated
08:50PM 37.4017 121.3717 218° Southwest  Level Estimated
08:51PM 37.4017 121.3717 218° Southwest  Level Estimated
08:52PM 37.4017 121.3717 218° Southwest  Level Estimated
08:53PM 37.4017 121.3717 218° Southwest  Level Estimated
08:54PM 37.4017 121.3717 218° Southwest  Level Estimated
08:55PM 37.4017 121.3717 218° Southwest  Level Estimated